Track Власов Николай

Time Latitude Longitude Accuracy (66% radius in meters) Altitude (meters) Speed (km/hour) Bearing (degrees) Battery (%) GPS flag
10:13:28 60.370985 29.556506 16 49 0 162.82051086426 63 1 delete
10:13:13 60.371024 29.556610 16 72 0.11980018764734 162.82051086426 63 1 delete
10:13:01 60.371007 29.556582 16 73 0 77.320274353027 63 1 delete
10:12:48 60.370998 29.556565 16 62 0 77.320274353027 63 1 delete
10:12:39 60.370996 29.556680 24 46 0 77.320274353027 63 1 delete
10:12:35 60.370986 29.556769 32 32 0 77.320274353027 63 1 delete
10:12:22 60.370985 29.556789 16 35 0 77.320274353027 63 1 delete
10:12:19 60.370986 29.556790 16 39 0 77.320274353027 63 1 delete
10:12:10 60.371017 29.556891 16 36 0 77.320274353027 63 1 delete
10:11:56 60.371048 29.556950 24 51 0.78055453300476 71.380271911621 63 1 delete
10:11:49 60.371027 29.556886 16 55 0.30204832553864 67.50220489502 63 1 delete
10:11:44 60.371021 29.556784 16 59 0 79.050048828125 63 1 delete
10:11:43 60.371020 29.556731 16 59 2 79.050048828125 63 1 delete
10:11:38 60.371015 29.556676 24 71 0 145.41105651855 63 1 delete
10:11:30 60.371027 29.556571 24 75 0 145.41105651855 63 1 delete
10:11:18 60.371027 29.556571 24 75 0 145.41105651855 63 1 delete
10:11:04 60.371027 29.556571 16 75 0 145.41105651855 63 1 delete
10:11:03 60.370988 29.556388 16 73 0 145.41105651855 63 1 delete
10:10:49 60.370988 29.556388 16 73 0 145.41105651855 63 1 delete
10:10:37 60.370988 29.556388 16 73 0 145.41105651855 63 1 delete
10:10:24 60.370988 29.556388 16 73 0 145.41105651855 63 1 delete
10:10:12 60.370988 29.556388 16 73 0 145.41105651855 63 1 delete
10:09:59 60.370988 29.556388 12 73 0 145.41105651855 63 1 delete
10:09:47 60.371001 29.556374 6 73 1.4098283052444 139.56301879883 63 1 delete
10:09:45 60.371017 29.556358 8 73 1.4707499742508 181.18690490723 63 1 delete
10:09:35 60.371048 29.556428 6 80 0 306.07876586914 63 1 delete
10:09:30 60.371048 29.556428 6 80 0 306.07876586914 63 1 delete
10:09:22 60.370990 29.556386 8 76 0 306.07876586914 63 1 delete
10:09:09 60.370990 29.556386 6 76 0 306.07876586914 63 1 delete
11:09:12 60.370937 29.556416 12 70 1.0888677835464 306.07876586914 63 0 delete
10:08:56 60.370937 29.556416 12 70 0 306.07876586914 63 1 delete
10:08:44 60.370937 29.556416 16 70 0 306.07876586914 63 1 delete
10:08:38 60.370937 29.556416 12 70 1.0888677835464 306.07876586914 63 1 delete
10:08:31 60.370922 29.556500 6 68 0 306.25527954102 63 1 delete
10:08:19 60.370922 29.556500 8 68 0 306.25527954102 63 1 delete
10:08:11 60.370903 29.556551 24 69 1.2198758125305 301.24353027344 63 1 delete
10:08:06 60.370880 29.556653 8 68 0 327.87942504883 63 1 delete
10:08:01 60.370880 29.556653 12 68 1.2951214313507 327.87942504883 63 1 delete
10:07:54 60.370833 29.556690 8 76 0 354.00250244141 63 1 delete
10:07:41 60.370833 29.556690 6 76 0 354.00250244141 63 1 delete
10:07:38 60.370833 29.556690 6 76 0 354.00250244141 63 1 delete
10:07:29 60.370778 29.556691 8 82 0 354.00250244141 63 1 delete
10:07:17 60.370778 29.556691 6 82 0 354.00250244141 63 1 delete
10:07:13 60.370778 29.556691 8 82 1.021906375885 354.00250244141 63 1 delete
10:07:03 60.370710 29.556767 6 77 0 314.60797119141 63 1 delete
10:06:49 60.370688 29.556821 8 77 5.401867389679 312.58834838867 63 1 delete
10:06:48 60.370658 29.556898 8 77 5.654559135437 311.7131652832 63 1 delete
10:06:47 60.370627 29.556980 6 78 5.6399083137512 312.04391479492 63 1 delete
10:06:45 60.370584 29.557144 6 78 5.2449564933777 285.73248291016 63 1 delete
10:06:44 60.370581 29.557243 6 76 4.6337661743164 248.74224853516 63 1 delete